createdAt,value
2018-06-21T00:00:51.048Z,10.63
2018-06-21T00:03:19.306Z,7.70
2018-06-21T00:05:47.548Z,8.73
2018-06-21T00:08:15.812Z,8.40
2018-06-21T00:10:44.676Z,7.43
2018-06-21T00:13:12.898Z,6.83
2018-06-21T00:15:41.134Z,7.73
2018-06-21T00:18:09.942Z,8.43
2018-06-21T00:20:38.229Z,8.33
2018-06-21T00:23:07.570Z,8.53
2018-06-21T00:25:35.808Z,7.13
2018-06-21T00:28:04.050Z,12.37
2018-06-21T00:30:32.331Z,8.67
2018-06-21T00:33:00.674Z,8.43
2018-06-21T00:35:28.982Z,8.00
2018-06-21T00:37:57.183Z,8.03
2018-06-21T00:40:25.397Z,7.53
2018-06-21T00:42:53.340Z,9.33
2018-06-21T00:45:21.554Z,7.60
2018-06-21T00:47:50.556Z,7.80
2018-06-21T00:50:18.888Z,8.03
2018-06-21T00:52:47.103Z,6.83
2018-06-21T00:55:25.467Z,8.43
2018-06-21T00:57:53.950Z,7.30
2018-06-21T01:00:22.158Z,8.50
2018-06-21T01:02:50.407Z,9.10
2018-06-21T01:05:18.642Z,7.93
2018-06-21T01:07:46.855Z,7.40
2018-06-21T01:10:16.058Z,8.43
2018-06-21T01:12:44.257Z,8.80
2018-06-21T01:15:12.470Z,7.60
2018-06-21T01:17:40.734Z,7.50
2018-06-21T01:20:08.963Z,8.03
2018-06-21T01:22:37.159Z,8.00
2018-06-21T01:25:05.399Z,6.80
2018-06-21T01:27:33.697Z,8.63
2018-06-21T01:30:01.929Z,7.53
2018-06-21T01:32:30.142Z,8.10
2018-06-21T01:34:58.342Z,8.97
2018-06-21T01:37:26.653Z,10.83
2018-06-21T01:39:54.881Z,8.90
2018-06-21T01:42:23.091Z,8.27
2018-06-21T01:44:51.310Z,9.23
2018-06-21T01:47:19.581Z,7.87
2018-06-21T01:49:47.831Z,7.50
2018-06-21T01:52:16.029Z,7.73
2018-06-21T01:54:43.977Z,7.30
2018-06-21T01:57:12.174Z,8.30
2018-06-21T01:59:40.406Z,8.37
2018-06-21T02:02:08.613Z,8.20
2018-06-21T02:04:36.570Z,8.53
2018-06-21T02:07:04.786Z,8.53
2018-06-21T02:09:33.030Z,8.37
2018-06-21T02:12:01.394Z,8.40
2018-06-21T02:14:29.615Z,8.03
2018-06-21T02:16:57.843Z,9.23
2018-06-21T02:19:26.058Z,9.40
2018-06-21T02:21:54.294Z,8.33
2018-06-21T02:24:22.269Z,9.30
2018-06-21T02:26:50.521Z,9.23
2018-06-21T02:29:18.734Z,8.80
2018-06-21T02:31:46.967Z,8.87
2018-06-21T02:34:15.232Z,8.37
2018-06-21T02:36:43.394Z,9.30
2018-06-21T02:39:11.602Z,8.90
2018-06-21T02:41:39.820Z,8.03
2018-06-21T02:44:08.053Z,8.33
2018-06-21T02:46:36.440Z,8.93
2018-06-21T02:49:05.008Z,8.93
2018-06-21T02:51:33.208Z,10.67
2018-06-21T02:54:02.479Z,7.80
2018-06-21T02:56:30.671Z,8.37
2018-06-21T02:58:58.886Z,8.27
2018-06-21T03:01:28.108Z,7.47
2018-06-21T03:03:57.356Z,8.40
2018-06-21T03:06:25.539Z,8.50
2018-06-21T03:08:53.783Z,7.60
2018-06-21T03:11:21.893Z,7.97
2018-06-21T03:13:51.120Z,7.50
2018-06-21T03:16:19.331Z,8.20
2018-06-21T03:18:47.594Z,7.90
2018-06-21T03:21:15.815Z,12.27
2018-06-21T03:23:45.047Z,14.00
2018-06-21T03:26:13.262Z,9.60
2018-06-21T03:28:41.477Z,8.00
2018-06-21T03:31:09.699Z,9.17
2018-06-21T03:33:37.944Z,9.47
2018-06-21T03:36:06.219Z,8.23
2018-06-21T03:38:34.474Z,9.70
2018-06-21T03:41:02.684Z,9.33
2018-06-21T03:43:30.684Z,9.40
2018-06-21T03:45:58.935Z,14.07
2018-06-21T03:48:27.166Z,9.63
2018-06-21T03:50:55.378Z,8.03
2018-06-21T03:53:24.329Z,8.47
2018-06-21T03:55:52.582Z,9.20
2018-06-21T03:58:20.847Z,9.67
2018-06-21T04:00:48.781Z,8.27
2018-06-21T04:03:16.733Z,8.63
2018-06-21T04:05:44.965Z,8.40
2018-06-21T04:08:13.184Z,8.63
2018-06-21T04:10:41.412Z,9.90
2018-06-21T04:13:09.613Z,8.13
2018-06-21T04:15:37.850Z,7.40
2018-06-21T04:18:06.039Z,8.37
2018-06-21T04:20:34.366Z,8.33
2018-06-21T04:23:02.616Z,8.23
2018-06-21T04:25:30.807Z,8.63
2018-06-21T04:27:59.083Z,8.27
2018-06-21T04:30:28.355Z,8.43
2018-06-21T04:32:57.684Z,9.50
2018-06-21T04:35:25.885Z,8.50
2018-06-21T04:37:54.114Z,7.30
2018-06-21T04:40:22.286Z,8.27
2018-06-21T04:42:50.513Z,7.63
2018-06-21T04:45:18.716Z,9.50
2018-06-21T04:47:46.936Z,9.00
2018-06-21T04:50:15.135Z,7.73
2018-06-21T04:52:43.491Z,11.00
2018-06-21T04:55:18.394Z,8.03
2018-06-21T04:57:46.631Z,8.63
2018-06-21T05:00:14.817Z,7.97
2018-06-21T05:02:44.171Z,7.73
2018-06-21T05:05:12.414Z,7.97
2018-06-21T05:07:41.618Z,7.83
2018-06-21T05:10:09.842Z,10.00
2018-06-21T05:12:38.069Z,8.43
2018-06-21T05:15:06.050Z,7.83
2018-06-21T05:17:34.831Z,8.37
2018-06-21T05:20:03.078Z,7.37
2018-06-21T05:22:31.316Z,8.07
2018-06-21T05:24:59.575Z,7.40
2018-06-21T05:27:27.763Z,8.60
2018-06-21T05:29:56.030Z,8.83
2018-06-21T05:32:24.301Z,7.83
2018-06-21T05:34:52.543Z,7.27
2018-06-21T05:37:20.538Z,8.23
2018-06-21T05:39:48.730Z,7.87
2018-06-21T05:42:16.979Z,7.33
2018-06-21T05:44:45.230Z,7.97
2018-06-21T05:47:14.472Z,8.03
2018-06-21T05:49:42.735Z,8.13
2018-06-21T05:52:11.008Z,6.87
2018-06-21T05:54:39.364Z,10.70
2018-06-21T05:57:07.638Z,8.13
2018-06-21T05:59:35.833Z,8.00
2018-06-21T06:02:05.293Z,7.80
2018-06-21T06:04:34.415Z,8.00
2018-06-21T06:07:02.742Z,9.67
2018-06-21T06:09:31.870Z,6.20
2018-06-21T06:12:01.151Z,8.20
2018-06-21T06:14:30.293Z,12.10
2018-06-21T06:17:00.637Z,7.53
2018-06-21T06:19:30.020Z,7.60
2018-06-21T06:21:59.476Z,8.73
2018-06-21T06:24:29.127Z,6.90
2018-06-21T06:26:58.745Z,6.77
2018-06-21T06:29:28.089Z,7.30
2018-06-21T06:31:57.537Z,52.10
2018-06-21T06:34:26.860Z,39.33
2018-06-21T06:36:56.202Z,169.87
2018-06-21T06:39:25.399Z,152.33
2018-06-21T06:41:54.754Z,160.00
2018-06-21T06:44:24.083Z,80.97
2018-06-21T06:46:53.208Z,81.73
2018-06-21T06:49:22.327Z,77.70
2018-06-21T06:51:51.386Z,80.73
2018-06-21T06:54:20.594Z,80.93
2018-06-21T06:56:48.831Z,96.43
2018-06-21T06:59:17.058Z,76.93
2018-06-21T07:01:45.290Z,86.73
2018-06-21T07:04:13.499Z,87.70
2018-06-21T07:06:41.724Z,99.23
2018-06-21T07:09:10.258Z,91.53
2018-06-21T07:11:38.483Z,107.70
2018-06-21T07:14:06.907Z,95.23
2018-06-21T07:16:35.093Z,97.20
2018-06-21T07:19:03.439Z,95.20
2018-06-21T07:21:31.708Z,94.90
2018-06-21T07:23:59.924Z,74.10
2018-06-21T07:26:28.144Z,90.73
2018-06-21T07:28:56.367Z,70.50
2018-06-21T07:31:24.573Z,87.60
2018-06-21T07:33:52.802Z,93.23
2018-06-21T07:36:22.104Z,58.93
2018-06-21T07:38:50.389Z,88.97
2018-06-21T07:41:18.581Z,66.00
2018-06-21T07:43:46.778Z,63.50
2018-06-21T07:46:15.617Z,55.23
2018-06-21T07:48:43.842Z,67.77
2018-06-21T07:51:12.095Z,58.03
2018-06-21T07:53:41.342Z,74.43
2018-06-21T07:56:09.547Z,47.13
2018-06-21T07:58:37.794Z,47.60
2018-06-21T08:01:05.715Z,60.23
2018-06-21T08:03:33.970Z,45.33
2018-06-21T08:06:03.215Z,38.50
2018-06-21T08:08:32.015Z,44.63
2018-06-21T08:11:00.294Z,53.27
2018-06-21T08:13:28.503Z,46.07
2018-06-21T08:15:56.742Z,40.97
2018-06-21T08:18:24.954Z,43.90
2018-06-21T08:20:53.190Z,42.03
2018-06-21T08:23:22.604Z,41.67
2018-06-21T08:25:50.867Z,46.67
2018-06-21T08:28:20.108Z,35.33
2018-06-21T08:30:48.332Z,36.23
2018-06-21T08:33:16.578Z,41.70
2018-06-21T08:35:45.805Z,36.27
2018-06-21T08:38:14.060Z,37.67
2018-06-21T08:40:42.298Z,35.03
2018-06-21T08:43:10.505Z,36.67
2018-06-21T08:45:39.743Z,32.37
2018-06-21T08:48:07.983Z,36.63
2018-06-21T08:50:36.371Z,39.87
2018-06-21T08:53:04.631Z,32.87
2018-06-21T08:55:32.882Z,22.57
2018-06-21T08:58:01.170Z,28.90
2018-06-21T09:00:29.383Z,32.70
2018-06-21T09:02:57.638Z,30.27
2018-06-21T09:05:25.858Z,24.07
2018-06-21T09:07:55.101Z,18.07
2018-06-21T09:10:23.294Z,28.50
2018-06-21T09:12:51.509Z,30.77
2018-06-21T09:15:19.749Z,26.00
2018-06-21T09:17:47.959Z,32.93
2018-06-21T09:20:16.186Z,28.73
2018-06-21T09:25:19.048Z,20.83
2018-06-21T09:27:47.256Z,20.43
2018-06-21T09:30:15.197Z,29.83
2018-06-21T09:32:43.427Z,24.70
2018-06-21T09:35:11.636Z,16.57
2018-06-21T09:37:45.398Z,22.90
2018-06-21T09:40:19.104Z,21.63
2018-06-21T09:42:52.664Z,17.83
2018-06-21T09:45:26.383Z,20.40
2018-06-21T09:48:00.119Z,18.27
2018-06-21T09:50:28.379Z,15.30
2018-06-21T09:52:56.625Z,16.03
2018-06-21T09:55:24.902Z,15.63
2018-06-21T09:57:53.119Z,16.43
2018-06-21T10:00:26.774Z,13.10
2018-06-21T10:02:55.142Z,17.77
2018-06-21T10:05:24.410Z,21.70
2018-06-21T10:07:52.619Z,20.97
2018-06-21T10:10:21.006Z,16.87
2018-06-21T10:12:48.942Z,14.70
2018-06-21T10:15:18.447Z,15.87
2018-06-21T10:17:46.650Z,13.43
2018-06-21T10:20:14.874Z,14.87
2018-06-21T10:22:44.116Z,15.43
2018-06-21T10:25:12.386Z,21.87
2018-06-21T10:27:40.574Z,21.23
2018-06-21T10:30:08.798Z,18.07
2018-06-21T10:32:37.024Z,15.73
2018-06-21T10:35:05.263Z,15.07
2018-06-21T10:37:33.443Z,18.87
2018-06-21T10:40:01.653Z,14.13
2018-06-21T10:42:30.058Z,11.20
2018-06-21T10:44:59.218Z,14.07
2018-06-21T10:47:28.478Z,11.73
2018-06-21T10:49:56.675Z,12.10
2018-06-21T10:52:24.878Z,15.43
2018-06-21T10:54:54.091Z,11.50
2018-06-21T10:57:22.319Z,17.63
2018-06-21T10:59:50.550Z,18.83
2018-06-21T11:02:18.736Z,31.30
2018-06-21T11:04:46.963Z,19.93
2018-06-21T11:07:15.037Z,11.10
2018-06-21T11:09:43.332Z,23.47
2018-06-21T11:12:11.546Z,17.40
2018-06-21T11:14:40.788Z,23.57
2018-06-21T11:17:09.006Z,27.37
2018-06-21T11:19:37.234Z,15.63
2018-06-21T11:22:05.456Z,14.57
2018-06-21T11:24:33.853Z,13.87
2018-06-21T11:27:02.100Z,13.43
2018-06-21T11:29:30.359Z,17.17
2018-06-21T11:31:58.579Z,10.17
2018-06-21T11:34:26.561Z,13.17
2018-06-21T11:36:54.522Z,13.47
2018-06-21T11:39:22.758Z,12.30
2018-06-21T11:41:50.967Z,20.07
2018-06-21T11:44:18.962Z,11.70
2018-06-21T11:46:47.258Z,12.30
2018-06-21T11:49:15.200Z,14.73
2018-06-21T11:51:43.403Z,12.50
2018-06-21T11:54:11.688Z,13.97
2018-06-21T11:56:39.930Z,13.63
2018-06-21T11:59:08.166Z,14.17
2018-06-21T12:01:36.576Z,10.60
2018-06-21T12:04:04.782Z,14.10
2018-06-21T12:06:33.099Z,10.70
2018-06-21T12:09:02.332Z,10.87
2018-06-21T12:11:30.569Z,10.00
2018-06-21T12:13:59.578Z,13.90
2018-06-21T12:16:27.775Z,10.37
2018-06-21T12:18:56.164Z,10.83
2018-06-21T12:21:24.386Z,11.90
2018-06-21T12:23:52.574Z,9.67
2018-06-21T12:26:20.917Z,13.23
2018-06-21T12:28:49.052Z,8.70
2018-06-21T12:31:18.347Z,8.20
2018-06-21T12:33:46.585Z,9.10
2018-06-21T12:36:14.814Z,9.73
2018-06-21T12:38:43.074Z,11.97
2018-06-21T12:41:11.330Z,10.53
2018-06-21T12:43:39.905Z,10.60
2018-06-21T12:46:08.070Z,8.00
2018-06-21T12:48:36.075Z,9.93
2018-06-21T12:51:05.327Z,8.87
2018-06-21T12:53:33.576Z,8.10
2018-06-21T12:56:01.861Z,10.37
2018-06-21T12:58:30.263Z,11.67
2018-06-21T13:00:58.479Z,11.33
2018-06-21T13:03:27.683Z,8.97
2018-06-21T13:05:55.931Z,9.03
2018-06-21T13:08:35.377Z,8.30
2018-06-21T13:12:15.792Z,7.80
2018-06-21T13:14:44.035Z,9.20
2018-06-21T13:17:12.251Z,9.20
2018-06-21T13:19:40.451Z,9.93
2018-06-21T13:22:08.838Z,7.00
2018-06-21T13:24:38.075Z,8.40
2018-06-21T13:27:06.258Z,7.50
2018-06-21T13:29:34.488Z,9.70
2018-06-21T13:32:02.771Z,7.80
2018-06-21T13:34:30.984Z,7.73
2018-06-21T13:36:59.200Z,9.07
2018-06-21T13:39:27.110Z,8.30
2018-06-21T13:41:55.330Z,7.97
2018-06-21T13:44:23.537Z,6.17
2018-06-21T13:46:51.762Z,7.67
2018-06-21T13:49:19.987Z,8.47
2018-06-21T13:51:48.188Z,7.00
2018-06-21T13:54:16.424Z,8.83
2018-06-21T13:56:46.062Z,8.70
2018-06-21T13:59:14.296Z,7.50
2018-06-21T14:01:42.531Z,8.13
2018-06-21T14:04:10.617Z,7.23
2018-06-21T14:06:38.897Z,6.70
2018-06-21T14:09:08.670Z,8.47
2018-06-21T14:11:36.890Z,7.03
2018-06-21T14:14:05.103Z,6.53
2018-06-21T14:16:33.414Z,8.10
2018-06-21T14:19:02.367Z,6.00
2018-06-21T14:21:30.602Z,8.23
2018-06-21T14:23:58.850Z,10.27
2018-06-21T14:26:27.078Z,6.83
2018-06-21T14:28:55.707Z,9.47
2018-06-21T14:31:24.716Z,7.93
2018-06-21T14:33:53.914Z,6.13
2018-06-21T14:36:22.140Z,6.63
2018-06-21T14:38:51.427Z,6.97
2018-06-21T14:41:20.678Z,6.50
2018-06-21T14:43:48.914Z,7.93
2018-06-21T14:46:17.149Z,5.90
2018-06-21T14:48:45.403Z,6.03
2018-06-21T14:51:13.632Z,7.43
2018-06-21T14:53:41.919Z,5.40
2018-06-21T14:56:10.123Z,6.03
2018-06-21T14:58:38.320Z,7.40
2018-06-21T15:01:06.731Z,7.43
2018-06-21T15:03:35.132Z,5.20
2018-06-21T15:06:03.354Z,6.43
2018-06-21T15:08:31.559Z,7.97
2018-06-21T15:10:59.763Z,5.97
2018-06-21T15:13:28.997Z,5.90
2018-06-21T15:15:57.246Z,5.83
2018-06-21T15:18:25.450Z,6.27
2018-06-21T15:20:53.692Z,6.03
2018-06-21T15:23:21.880Z,7.87
2018-06-21T15:25:51.176Z,6.13
2018-06-21T15:28:19.514Z,6.77
2018-06-21T15:30:47.717Z,7.17
2018-06-21T15:33:16.915Z,6.50
2018-06-21T15:35:45.163Z,6.00
2018-06-21T15:38:14.719Z,6.77
2018-06-21T15:40:43.992Z,7.50
2018-06-21T15:43:12.246Z,6.50
2018-06-21T15:45:40.447Z,5.97
2018-06-21T15:48:09.690Z,5.40
2018-06-21T15:50:37.915Z,6.83
2018-06-21T15:53:06.163Z,6.70
2018-06-21T15:55:34.386Z,6.60
2018-06-21T15:58:02.633Z,6.60
2018-06-21T16:00:30.834Z,7.33
2018-06-21T16:02:59.117Z,6.50
2018-06-21T16:05:27.308Z,5.43
2018-06-21T16:07:55.534Z,5.17
2018-06-21T16:10:23.750Z,6.53
2018-06-21T16:12:52.008Z,7.10
2018-06-21T16:15:20.284Z,6.43
2018-06-21T16:17:48.170Z,5.33
2018-06-21T16:20:16.438Z,4.43
2018-06-21T16:22:44.662Z,6.00
2018-06-21T16:25:12.900Z,5.77
2018-06-21T16:27:41.138Z,4.70
2018-06-21T16:30:09.213Z,6.13
2018-06-21T16:32:37.426Z,4.97
2018-06-21T16:35:05.719Z,6.00
2018-06-21T16:37:33.695Z,6.00
2018-06-21T16:40:02.027Z,5.93
2018-06-21T16:42:30.244Z,5.27
2018-06-21T16:44:58.463Z,5.50
2018-06-21T16:47:26.687Z,5.33
2018-06-21T16:49:54.689Z,4.70
2018-06-21T16:52:22.939Z,4.90
2018-06-21T16:54:51.166Z,5.50
2018-06-21T16:57:19.442Z,5.33
2018-06-21T16:59:47.669Z,5.07
2018-06-21T17:02:15.928Z,5.17
2018-06-21T17:04:44.159Z,5.33
2018-06-21T17:07:12.423Z,4.33
2018-06-21T17:09:40.586Z,4.43
2018-06-21T17:12:09.830Z,5.60
2018-06-21T17:14:38.088Z,5.17
2018-06-21T17:17:07.380Z,4.80
2018-06-21T17:19:35.550Z,5.00
2018-06-21T17:22:03.877Z,4.80
2018-06-21T17:24:31.843Z,4.43
2018-06-21T17:27:00.070Z,5.90
2018-06-21T17:29:28.404Z,5.60
2018-06-21T17:31:56.606Z,5.53
2018-06-21T17:34:25.906Z,5.30
2018-06-21T17:36:55.255Z,4.40
2018-06-21T17:39:23.450Z,6.33
2018-06-21T17:41:51.644Z,4.23
2018-06-21T17:44:19.866Z,4.23
2018-06-21T17:46:48.132Z,4.63
2018-06-21T17:49:16.357Z,4.47
2018-06-21T17:51:44.635Z,4.30
2018-06-21T17:54:13.902Z,5.33
2018-06-21T17:56:42.136Z,3.90
2018-06-21T17:59:11.391Z,3.97
2018-06-21T18:01:39.706Z,3.70
2018-06-21T18:04:08.236Z,4.50
2018-06-21T18:06:37.473Z,5.03
2018-06-21T18:09:08.271Z,6.33
2018-06-21T18:11:37.519Z,3.57
2018-06-21T18:14:05.738Z,7.20
2018-06-21T18:16:33.978Z,4.40
2018-06-21T18:19:02.202Z,5.43
2018-06-21T18:21:30.463Z,4.30
2018-06-21T18:23:58.407Z,4.13
2018-06-21T18:26:26.643Z,7.47
2018-06-21T18:28:54.917Z,5.33
2018-06-21T18:31:23.082Z,4.30
2018-06-21T18:33:51.311Z,4.13
2018-06-21T18:36:19.569Z,4.03
2018-06-21T18:38:47.774Z,4.67
2018-06-21T18:41:15.986Z,3.90
2018-06-21T18:43:45.221Z,4.00
2018-06-21T18:46:13.215Z,4.00
2018-06-21T18:48:41.470Z,4.73
2018-06-21T18:51:09.711Z,4.50
2018-06-21T18:53:38.946Z,3.83
2018-06-21T18:56:08.026Z,5.23
2018-06-21T18:58:37.090Z,4.10
2018-06-21T19:01:06.800Z,4.30
2018-06-21T19:03:36.046Z,3.83
2018-06-21T19:06:09.782Z,3.57
2018-06-21T19:08:45.124Z,4.27
2018-06-21T19:11:19.567Z,4.33
2018-06-21T19:13:48.932Z,4.73
2018-06-21T19:16:18.547Z,3.77
2018-06-21T19:18:47.660Z,4.00
2018-06-21T19:21:17.052Z,4.00
2018-06-21T19:23:46.242Z,3.90
2018-06-21T19:26:15.450Z,4.70
2018-06-21T19:28:46.702Z,3.80
2018-06-21T19:31:15.969Z,5.23
2018-06-21T19:33:45.091Z,5.00
2018-06-21T19:36:15.263Z,4.57
2018-06-21T19:38:44.888Z,4.67
2018-06-21T19:41:14.136Z,6.03
2018-06-21T19:43:43.275Z,4.80
2018-06-21T19:46:12.458Z,4.33
2018-06-21T19:48:40.984Z,4.40
2018-06-21T19:51:10.318Z,3.00
2018-06-21T19:53:40.775Z,3.83
2018-06-21T19:56:09.955Z,5.17
2018-06-21T19:58:39.091Z,4.30
2018-06-21T20:01:08.357Z,3.93
2018-06-21T20:03:37.456Z,4.20
2018-06-21T20:06:07.704Z,4.40
2018-06-21T20:08:37.996Z,4.10
2018-06-21T20:11:12.316Z,3.87
2018-06-21T20:13:46.463Z,4.10
2018-06-21T20:16:15.846Z,5.70
2018-06-21T20:18:44.117Z,3.37
2018-06-21T20:21:14.427Z,3.40
2018-06-21T20:23:44.307Z,4.30
2018-06-21T20:26:12.703Z,3.73
2018-06-21T20:28:41.379Z,3.10
2018-06-21T20:31:11.827Z,3.93
2018-06-21T20:33:41.385Z,3.43
2018-06-21T20:36:10.587Z,3.60
2018-06-21T20:38:39.596Z,4.43
2018-06-21T20:41:08.481Z,3.27
2018-06-21T20:43:38.223Z,3.90
2018-06-21T20:46:07.003Z,3.63
2018-06-21T20:48:36.410Z,3.30
2018-06-21T20:51:06.225Z,5.40
2018-06-21T20:53:35.242Z,4.23
2018-06-21T20:56:04.338Z,5.03
2018-06-21T20:58:34.365Z,3.90
2018-06-21T21:01:04.501Z,3.30
2018-06-21T21:03:33.581Z,4.33
2018-06-21T21:06:02.596Z,3.47
2018-06-21T21:08:31.134Z,6.57
2018-06-21T21:10:59.478Z,3.63
2018-06-21T21:13:27.694Z,3.90
2018-06-21T21:15:55.970Z,3.53
2018-06-21T21:18:24.192Z,4.10
2018-06-21T21:20:52.431Z,3.53
2018-06-21T21:23:20.787Z,5.37
2018-06-21T21:25:48.966Z,5.57
2018-06-21T21:28:17.192Z,4.40
2018-06-21T21:30:45.550Z,5.07
2018-06-21T21:33:13.831Z,4.80
2018-06-21T21:35:42.035Z,6.47
2018-06-21T21:38:10.247Z,4.47
2018-06-21T21:40:38.444Z,4.97
2018-06-21T21:43:06.679Z,2.90
2018-06-21T21:45:35.907Z,3.07
2018-06-21T21:48:04.140Z,4.33
2018-06-21T21:50:32.338Z,5.63
2018-06-21T21:53:00.530Z,3.27
2018-06-21T21:55:29.591Z,12.80
2018-06-21T21:57:59.112Z,3.93
2018-06-21T22:00:47.998Z,3.20
2018-06-21T22:03:16.214Z,6.43
2018-06-21T22:05:44.804Z,5.70
2018-06-21T22:08:13.075Z,4.93
2018-06-21T22:10:42.745Z,8.00
2018-06-21T22:13:11.375Z,3.77
2018-06-21T22:15:40.707Z,5.93
2018-06-21T22:18:09.961Z,8.87
2018-06-21T22:20:38.506Z,4.27
2018-06-21T22:23:06.752Z,6.03
2018-06-21T22:25:36.051Z,5.03
2018-06-21T22:28:04.308Z,7.90
2018-06-21T22:30:33.414Z,9.20
2018-06-21T22:33:01.666Z,5.43
2018-06-21T22:35:30.854Z,6.60
2018-06-21T22:38:00.103Z,3.50
2018-06-21T22:40:29.220Z,5.97
2018-06-21T22:42:58.381Z,7.33
2018-06-21T22:45:27.575Z,5.87
2018-06-21T22:47:57.955Z,6.37
2018-06-21T22:50:27.265Z,4.17
2018-06-21T22:52:57.309Z,4.43
2018-06-21T22:55:26.406Z,3.10
2018-06-21T22:57:55.514Z,3.50
2018-06-21T23:00:24.690Z,4.97
2018-06-21T23:02:54.010Z,4.83
2018-06-21T23:05:23.400Z,7.50
2018-06-21T23:07:52.642Z,5.00
2018-06-21T23:10:20.870Z,7.87
2018-06-21T23:12:49.058Z,5.57
2018-06-21T23:15:17.310Z,3.30
2018-06-21T23:17:45.570Z,9.70
2018-06-21T23:20:13.790Z,3.40
2018-06-21T23:22:43.067Z,8.80
2018-06-21T23:25:11.316Z,4.37
2018-06-21T23:27:40.590Z,8.10
2018-06-21T23:30:09.726Z,4.13
2018-06-21T23:32:40.181Z,4.10
2018-06-21T23:35:08.570Z,4.07
2018-06-21T23:37:37.773Z,8.83
2018-06-21T23:40:06.598Z,5.10
2018-06-21T23:42:35.077Z,4.03
2018-06-21T23:45:03.298Z,7.23
2018-06-21T23:47:31.494Z,4.30
2018-06-21T23:49:59.702Z,5.10
2018-06-21T23:52:27.932Z,5.63
2018-06-21T23:54:56.181Z,8.27
2018-06-21T23:57:24.428Z,5.70
2018-06-21T23:59:53.683Z,6.83
